Daolin, China
Current Conditions -  °F | °C
As of 11:00 AM on Sunday 26 Oct 2014 (Local Time) from ZGHA Reporting Station
Clear Clear  
Wind Chill: 82°   Ceiling: Unl
Heat Index: 82°   Visibility: 5mi
Dew Point: 55°   Wind: 7mph
Humidity: 39%   Direction: 170°S
Pressure: 30.06"   Gusts: NA
Location:  28.02°N, 112.72°E
Report Text: ZGHA 260300Z 17003MPS 130V200 8000 NSC 28/13 Q1018 NOSIG
Loading
Personal Weather Stations






























Interactive Weather Map
Tropical Storm Tracking
New forecast layout! Learn more

10-Day Weather Forecast

Advertisements
Track Severe Weather on mobile